createdAt,value
2018-12-11T00:00:44.071Z,97.30
2018-12-11T00:03:12.545Z,97.30
2018-12-11T00:05:40.967Z,97.40
2018-12-11T00:08:09.362Z,97.40
2018-12-11T00:10:37.811Z,97.90
2018-12-11T00:13:06.244Z,97.70
2018-12-11T00:15:34.741Z,96.60
2018-12-11T00:18:03.263Z,96.70
2018-12-11T00:20:31.667Z,96.00
2018-12-11T00:23:00.072Z,96.50
2018-12-11T00:25:28.479Z,95.40
2018-12-11T00:27:56.939Z,95.80
2018-12-11T00:30:25.397Z,95.20
2018-12-11T00:32:53.748Z,95.10
2018-12-11T00:35:22.122Z,94.60
2018-12-11T00:37:50.531Z,94.80
2018-12-11T00:40:18.927Z,94.20
2018-12-11T00:42:47.358Z,93.90
2018-12-11T00:45:15.791Z,93.90
2018-12-11T00:47:44.952Z,94.40
2018-12-11T00:50:13.346Z,94.50
2018-12-11T00:52:41.763Z,92.90
2018-12-11T00:55:10.203Z,93.20
2018-12-11T00:57:39.632Z,92.20
2018-12-11T01:00:09.436Z,92.70
2018-12-11T01:02:38.027Z,91.80
2018-12-11T01:05:06.567Z,92.10
2018-12-11T01:07:35.043Z,92.50
2018-12-11T01:10:06.557Z,93.00
2018-12-11T01:12:34.974Z,93.10
2018-12-11T01:15:03.914Z,93.40
2018-12-11T01:17:32.431Z,94.30
2018-12-11T01:20:00.997Z,95.10
2018-12-11T01:22:29.668Z,94.80
2018-12-11T01:24:58.341Z,95.50
2018-12-11T01:27:27.040Z,96.10
2018-12-11T01:29:55.412Z,95.10
2018-12-11T01:32:23.944Z,94.20
2018-12-11T01:34:52.668Z,95.00
2018-12-11T01:37:21.336Z,94.40
2018-12-11T01:39:49.774Z,94.70
2018-12-11T01:42:18.200Z,95.40
2018-12-11T01:44:46.599Z,95.30
2018-12-11T01:47:15.384Z,95.90
2018-12-11T01:49:43.769Z,95.90
2018-12-11T01:52:12.588Z,96.00
2018-12-11T01:54:41.024Z,96.40
2018-12-11T01:57:09.468Z,96.10
2018-12-11T01:59:37.868Z,95.90
2018-12-11T02:02:06.491Z,96.50
2018-12-11T02:04:34.865Z,95.70
2018-12-11T02:07:03.503Z,96.10
2018-12-11T02:09:31.955Z,96.00
2018-12-11T02:12:00.512Z,96.20
2018-12-11T02:14:28.880Z,96.50
2018-12-11T02:16:57.522Z,96.70
2018-12-11T02:19:25.966Z,96.40
2018-12-11T02:21:54.380Z,96.10
2018-12-11T02:24:22.768Z,96.10
2018-12-11T02:26:51.206Z,95.90
2018-12-11T02:29:19.595Z,95.20
2018-12-11T02:31:48.259Z,95.50
2018-12-11T02:34:16.692Z,94.80
2018-12-11T02:36:45.109Z,94.90
2018-12-11T02:39:13.556Z,94.90
2018-12-11T02:41:42.014Z,95.30
2018-12-11T02:44:10.517Z,95.50
2018-12-11T02:46:38.995Z,96.00
2018-12-11T02:49:07.376Z,95.90
2018-12-11T02:51:36.228Z,94.80
2018-12-11T02:54:04.836Z,96.40
2018-12-11T02:56:33.460Z,95.80
2018-12-11T02:59:01.977Z,96.00
2018-12-11T03:01:30.363Z,96.20
2018-12-11T03:03:59.073Z,96.30
2018-12-11T03:06:27.735Z,96.80
2018-12-11T03:08:56.159Z,96.40
2018-12-11T03:11:24.891Z,95.40
2018-12-11T03:13:53.393Z,95.90
2018-12-11T03:16:22.287Z,96.30
2018-12-11T03:18:50.954Z,95.50
2018-12-11T03:21:19.383Z,95.20
2018-12-11T03:23:47.768Z,94.60
2018-12-11T03:26:16.382Z,95.20
2018-12-11T03:28:45.162Z,95.70
2018-12-11T03:31:13.639Z,96.30
2018-12-11T03:33:42.346Z,96.40
2018-12-11T03:36:10.865Z,97.00
2018-12-11T03:38:39.311Z,96.00
2018-12-11T03:41:08.107Z,95.60
2018-12-11T03:43:36.609Z,95.10
2018-12-11T03:46:05.062Z,93.00
2018-12-11T03:48:33.755Z,93.90
2018-12-11T03:51:02.383Z,92.40
2018-12-11T03:53:31.048Z,91.60
2018-12-11T03:55:59.489Z,92.10
2018-12-11T03:58:28.147Z,92.00
2018-12-11T04:00:56.599Z,92.30
2018-12-11T04:03:25.055Z,91.70
2018-12-11T04:05:53.855Z,92.70
2018-12-11T04:08:22.306Z,93.70
2018-12-11T04:10:50.933Z,94.00
2018-12-11T04:13:19.365Z,94.40
2018-12-11T04:15:47.823Z,94.40
2018-12-11T04:18:16.482Z,94.00
2018-12-11T04:20:44.915Z,92.70
2018-12-11T04:23:13.608Z,94.00
2018-12-11T04:25:42.231Z,91.80
2018-12-11T04:28:10.869Z,92.10
2018-12-11T04:30:39.739Z,92.00
2018-12-11T04:33:08.186Z,91.60
2018-12-11T04:35:36.552Z,91.90
2018-12-11T04:38:05.183Z,91.80
2018-12-11T04:40:33.812Z,91.10
2018-12-11T04:43:02.299Z,92.40
2018-12-11T04:45:31.087Z,90.30
2018-12-11T04:47:59.466Z,90.90
2018-12-11T04:50:27.962Z,91.50
2018-12-11T04:52:56.426Z,91.80
2018-12-11T04:55:25.138Z,90.90
2018-12-11T04:57:53.654Z,91.00
2018-12-11T05:00:22.086Z,90.70
2018-12-11T05:02:50.860Z,90.40
2018-12-11T05:05:19.287Z,92.30
2018-12-11T05:07:47.763Z,90.70
2018-12-11T05:10:16.281Z,90.60
2018-12-11T05:12:44.723Z,90.80
2018-12-11T05:15:13.407Z,92.20
2018-12-11T05:17:41.769Z,90.20
2018-12-11T05:20:10.616Z,91.70
2018-12-11T05:22:39.226Z,90.00
2018-12-11T05:25:07.839Z,90.50
2018-12-11T05:27:36.284Z,88.90
2018-12-11T05:30:05.784Z,88.90
2018-12-11T05:32:34.397Z,92.10
2018-12-11T05:35:02.899Z,90.90
2018-12-11T05:37:31.344Z,91.60
2018-12-11T05:39:59.760Z,92.20
2018-12-11T05:42:28.465Z,92.10
2018-12-11T05:44:57.005Z,91.40
2018-12-11T05:47:25.683Z,91.40
2018-12-11T05:49:54.184Z,92.20
2018-12-11T05:52:22.630Z,92.30
2018-12-11T05:54:51.085Z,92.30
2018-12-11T05:57:19.684Z,91.30
2018-12-11T05:59:48.140Z,90.10
2018-12-11T06:02:17.319Z,91.30
2018-12-11T06:04:45.747Z,90.30
2018-12-11T06:07:14.296Z,90.90
2018-12-11T06:09:42.735Z,90.90
2018-12-11T06:12:11.428Z,91.30
2018-12-11T06:14:40.320Z,91.60
2018-12-11T06:17:08.716Z,90.70
2018-12-11T06:19:37.232Z,92.20
2018-12-11T06:22:05.604Z,93.90
2018-12-11T06:24:34.244Z,92.70
2018-12-11T06:27:02.945Z,93.70
2018-12-11T06:29:31.589Z,93.90
2018-12-11T06:31:59.980Z,95.60
2018-12-11T06:34:29.239Z,95.00
2018-12-11T06:36:58.182Z,96.10
2018-12-11T06:39:27.259Z,96.70
2018-12-11T06:41:55.775Z,96.40
2018-12-11T06:44:24.447Z,97.10
2018-12-11T06:46:53.120Z,97.10
2018-12-11T06:49:21.542Z,97.70
2018-12-11T06:51:49.932Z,98.00
2018-12-11T06:54:18.327Z,97.70
2018-12-11T06:56:46.811Z,97.20
2018-12-11T06:59:15.298Z,98.10
2018-12-11T07:01:43.965Z,98.50
2018-12-11T07:04:12.794Z,98.60
2018-12-11T07:06:41.235Z,98.00
2018-12-11T07:09:09.616Z,98.50
2018-12-11T07:11:38.060Z,98.60
2018-12-11T07:14:06.468Z,98.90
2018-12-11T07:16:36.754Z,99.20
2018-12-11T07:19:05.470Z,99.50
2018-12-11T07:21:34.098Z,99.60
2018-12-11T07:24:02.816Z,99.90
2018-12-11T07:26:31.421Z,99.90
2018-12-11T07:28:59.929Z,99.80
2018-12-11T07:31:28.361Z,99.10
2018-12-11T07:33:56.792Z,99.40
2018-12-11T07:36:26.195Z,99.10
2018-12-11T07:38:54.612Z,99.80
2018-12-11T07:41:23.376Z,99.30
2018-12-11T07:43:51.913Z,99.80
2018-12-11T07:46:20.405Z,99.90
2018-12-11T07:48:48.912Z,99.70
2018-12-11T07:51:17.371Z,99.60
2018-12-11T07:53:46.420Z,99.20
2018-12-11T07:56:14.895Z,99.80
2018-12-11T07:58:43.575Z,99.70
2018-12-11T08:01:12.064Z,99.80
2018-12-11T08:03:40.597Z,99.90
2018-12-11T08:06:09.244Z,99.90
2018-12-11T08:08:37.905Z,99.90
2018-12-11T08:11:06.549Z,99.60
2018-12-11T08:13:35.232Z,99.70
2018-12-11T08:16:03.652Z,99.90
2018-12-11T08:18:32.133Z,99.90
2018-12-11T08:21:00.596Z,99.90
2018-12-11T08:23:29.462Z,99.90
2018-12-11T08:25:58.110Z,99.90
2018-12-11T08:28:26.568Z,99.90
2018-12-11T08:30:55.210Z,99.90
2018-12-11T08:33:23.936Z,99.70
2018-12-11T08:35:52.397Z,99.80
2018-12-11T08:38:20.825Z,99.90
2018-12-11T08:40:49.976Z,99.90
2018-12-11T08:43:18.406Z,99.90
2018-12-11T08:45:47.352Z,99.90
2018-12-11T08:48:15.842Z,99.90
2018-12-11T08:50:44.591Z,99.90
2018-12-11T08:53:13.110Z,99.90
2018-12-11T08:55:41.499Z,99.90
2018-12-11T08:58:11.236Z,99.90
2018-12-11T09:00:39.707Z,99.90
2018-12-11T09:03:08.730Z,99.90
2018-12-11T09:05:37.176Z,99.90
2018-12-11T09:08:05.744Z,99.90
2018-12-11T09:10:34.534Z,99.70
2018-12-11T09:13:03.374Z,99.90
2018-12-11T09:15:32.097Z,99.90
2018-12-11T09:18:00.552Z,99.90
2018-12-11T09:20:28.992Z,99.30
2018-12-11T09:22:58.078Z,99.00
2018-12-11T09:25:27.044Z,99.30
2018-12-11T09:27:55.536Z,98.60
2018-12-11T09:30:25.147Z,99.40
2018-12-11T09:32:53.636Z,99.70
2018-12-11T09:35:22.193Z,99.70
2018-12-11T09:37:50.721Z,99.90
2018-12-11T09:40:24.377Z,99.90
2018-12-11T09:42:49.665Z,99.70
2018-12-11T09:45:18.395Z,99.60
2018-12-11T09:47:46.895Z,98.60
2018-12-11T09:50:15.579Z,98.70
2018-12-11T09:52:44.039Z,99.10
2018-12-11T09:55:12.808Z,98.60
2018-12-11T09:57:41.230Z,99.10
2018-12-11T10:00:10.416Z,99.00
2018-12-11T10:02:38.971Z,99.00
2018-12-11T10:05:07.784Z,99.00
2018-12-11T10:07:36.443Z,99.10
2018-12-11T10:10:05.259Z,99.60
2018-12-11T10:12:33.784Z,99.30
2018-12-11T10:15:02.280Z,99.00
2018-12-11T10:17:30.736Z,99.20
2018-12-11T10:19:59.204Z,99.60
2018-12-11T10:22:27.776Z,99.40
2018-12-11T10:24:56.473Z,99.70
2018-12-11T10:27:25.234Z,97.60
2018-12-11T10:29:53.672Z,98.10
2018-12-11T10:32:22.206Z,97.20
2018-12-11T10:34:50.921Z,97.40
2018-12-11T10:37:19.563Z,97.20
2018-12-11T10:39:48.016Z,97.00
2018-12-11T10:42:16.729Z,96.40
2018-12-11T10:44:45.761Z,96.40
2018-12-11T10:47:14.488Z,96.60
2018-12-11T10:49:42.966Z,96.10
2018-12-11T10:52:11.495Z,96.20
2018-12-11T10:54:40.035Z,94.20
2018-12-11T10:57:08.900Z,96.50
2018-12-11T10:59:37.407Z,94.40
2018-12-11T11:02:11.492Z,95.20
2018-12-11T11:04:40.005Z,94.80
2018-12-11T11:07:08.592Z,95.00
2018-12-11T11:09:37.290Z,95.10
2018-12-11T11:12:05.882Z,94.70
2018-12-11T11:14:35.216Z,95.40
2018-12-11T11:17:12.104Z,92.90
2018-12-11T11:19:41.843Z,95.30
2018-12-11T11:22:10.616Z,93.00
2018-12-11T11:24:39.017Z,94.00
2018-12-11T11:27:07.543Z,93.70
2018-12-11T11:29:36.056Z,94.80
2018-12-11T11:32:04.905Z,94.00
2018-12-11T11:34:38.288Z,94.20
2018-12-11T11:37:06.884Z,93.50
2018-12-11T11:39:35.507Z,94.80
2018-12-11T11:42:04.140Z,93.70
2018-12-11T11:44:32.707Z,95.10
2018-12-11T11:47:01.200Z,96.20
2018-12-11T11:49:29.654Z,96.20
2018-12-11T11:51:58.488Z,96.40
2018-12-11T11:54:27.220Z,96.70
2018-12-11T11:56:55.778Z,97.20
2018-12-11T11:59:24.217Z,97.00
2018-12-11T12:01:52.663Z,96.70
2018-12-11T12:04:21.156Z,97.50
2018-12-11T12:06:49.546Z,96.90
2018-12-11T12:09:18.002Z,96.50
2018-12-11T12:11:46.456Z,96.00
2018-12-11T12:14:14.919Z,96.80
2018-12-11T12:16:43.424Z,96.50
2018-12-11T12:19:11.823Z,96.20
2018-12-11T12:21:40.235Z,95.70
2018-12-11T12:24:08.623Z,96.20
2018-12-11T12:26:37.958Z,96.70
2018-12-11T12:29:06.804Z,96.30
2018-12-11T12:31:35.437Z,95.50
2018-12-11T12:34:04.155Z,96.10
2018-12-11T12:36:32.784Z,96.60
2018-12-11T12:39:01.909Z,95.70
2018-12-11T12:41:30.349Z,95.80
2018-12-11T12:43:58.859Z,95.70
2018-12-11T12:46:27.652Z,95.50
2018-12-11T12:48:56.636Z,96.30
2018-12-11T12:51:25.333Z,96.00
2018-12-11T12:53:53.771Z,95.90
2018-12-11T12:56:22.398Z,95.60
2018-12-11T12:58:50.840Z,96.30
2018-12-11T13:01:19.538Z,96.10
2018-12-11T13:03:48.466Z,95.40
2018-12-11T13:06:17.020Z,95.90
2018-12-11T13:08:45.629Z,95.70
2018-12-11T13:11:14.044Z,95.40
2018-12-11T13:13:47.745Z,94.20
2018-12-11T13:16:16.377Z,94.10
2018-12-11T13:18:44.868Z,94.60
2018-12-11T13:21:13.490Z,95.10
2018-12-11T13:23:42.152Z,94.00
2018-12-11T13:26:10.535Z,94.80
2018-12-11T13:28:39.024Z,94.40
2018-12-11T13:31:07.794Z,94.60
2018-12-11T13:33:36.272Z,92.90
2018-12-11T13:36:05.355Z,93.70
2018-12-11T13:38:33.901Z,92.80
2018-12-11T13:41:02.791Z,92.10
2018-12-11T13:43:31.404Z,92.70
2018-12-11T13:46:00.049Z,92.90
2018-12-11T13:48:28.993Z,91.20
2018-12-11T13:50:57.599Z,93.20
2018-12-11T13:53:27.347Z,92.50
2018-12-11T13:55:55.790Z,93.50
2018-12-11T13:58:24.406Z,93.10
2018-12-11T14:00:52.872Z,93.30
2018-12-11T14:03:21.584Z,94.00
2018-12-11T14:05:50.281Z,93.80
2018-12-11T14:08:18.679Z,94.90
2018-12-11T14:10:47.061Z,93.30
2018-12-11T14:13:15.603Z,93.60
2018-12-11T14:15:44.244Z,93.40
2018-12-11T14:18:13.314Z,93.20
2018-12-11T14:20:41.831Z,93.50
2018-12-11T14:23:10.607Z,94.20
2018-12-11T14:25:39.475Z,94.20
2018-12-11T14:28:08.168Z,94.70
2018-12-11T14:30:36.711Z,94.90
2018-12-11T14:33:05.352Z,93.80
2018-12-11T14:35:34.139Z,95.80
2018-12-11T14:38:02.677Z,95.50
2018-12-11T14:40:31.471Z,94.80
2018-12-11T14:43:01.637Z,94.90
2018-12-11T14:45:35.984Z,95.50
2018-12-11T14:48:04.371Z,94.30
2018-12-11T14:50:32.800Z,93.70
2018-12-11T14:53:02.130Z,93.70
2018-12-11T14:55:30.692Z,94.20
2018-12-11T14:57:59.122Z,94.50
2018-12-11T15:00:27.576Z,94.30
2018-12-11T15:02:56.088Z,94.00
2018-12-11T15:05:24.507Z,95.10
2018-12-11T15:07:53.091Z,94.70
2018-12-11T15:10:21.859Z,94.30
2018-12-11T15:12:50.672Z,94.10
2018-12-11T15:15:19.155Z,94.60
2018-12-11T15:17:47.681Z,94.90
2018-12-11T15:20:20.127Z,96.00
2018-12-11T15:22:48.700Z,96.40
2018-12-11T15:25:17.164Z,96.60
2018-12-11T15:27:53.530Z,96.50
2018-12-11T15:30:24.966Z,95.50
2018-12-11T15:32:53.579Z,95.60
2018-12-11T15:35:22.048Z,95.60
2018-12-11T15:37:50.697Z,95.70
2018-12-11T15:40:19.144Z,95.30
2018-12-11T15:42:47.980Z,94.90
2018-12-11T15:45:16.508Z,95.20
2018-12-11T15:47:45.018Z,95.30
2018-12-11T15:50:13.612Z,96.50
2018-12-11T15:52:42.059Z,96.30
2018-12-11T15:55:10.531Z,96.30
2018-12-11T15:57:39.001Z,97.00
2018-12-11T16:00:09.592Z,97.50
2018-12-11T16:02:38.090Z,97.20
2018-12-11T16:05:07.111Z,96.50
2018-12-11T16:07:35.602Z,96.80
2018-12-11T16:10:05.432Z,96.50
2018-12-11T16:12:33.939Z,97.00
2018-12-11T16:15:02.444Z,97.30
2018-12-11T16:17:30.881Z,97.30
2018-12-11T16:20:01.358Z,97.20
2018-12-11T16:22:29.953Z,98.30
2018-12-11T16:24:58.867Z,98.10
2018-12-11T16:27:27.998Z,97.40
2018-12-11T16:29:56.467Z,98.00
2018-12-11T16:32:25.016Z,98.00
2018-12-11T16:34:53.616Z,97.80
2018-12-11T16:37:22.211Z,98.60
2018-12-11T16:39:50.688Z,97.90
2018-12-11T16:42:19.111Z,98.30
2018-12-11T16:44:47.648Z,98.70
2018-12-11T16:47:16.272Z,98.40
2018-12-11T16:49:44.732Z,98.70
2018-12-11T16:52:13.221Z,98.90
2018-12-11T16:54:41.633Z,99.30
2018-12-11T16:57:10.666Z,99.10
2018-12-11T16:59:39.141Z,99.10
2018-12-11T17:02:09.198Z,99.10
2018-12-11T17:04:37.743Z,99.40
2018-12-11T17:07:06.845Z,99.70
2018-12-11T17:09:37.597Z,99.70
2018-12-11T17:12:06.864Z,99.50
2018-12-11T17:14:35.554Z,99.80
2018-12-11T17:17:04.631Z,99.60
2018-12-11T17:19:33.064Z,99.80
2018-12-11T17:22:01.586Z,99.90
2018-12-11T17:24:30.062Z,99.90
2018-12-11T17:26:58.508Z,99.90
2018-12-11T17:29:27.215Z,99.90
2018-12-11T17:31:55.972Z,99.90
2018-12-11T17:34:24.412Z,99.90
2018-12-11T17:36:53.218Z,99.90
2018-12-11T17:39:25.249Z,99.90
2018-12-11T17:41:53.980Z,99.90
2018-12-11T17:44:22.657Z,99.90
2018-12-11T17:46:51.798Z,99.90
2018-12-11T17:49:20.626Z,99.90
2018-12-11T17:51:49.491Z,99.90
2018-12-11T17:54:17.920Z,99.90
2018-12-11T17:56:46.618Z,99.90
2018-12-11T17:59:16.798Z,99.90
2018-12-11T18:01:48.770Z,99.90
2018-12-11T18:04:17.204Z,99.90
2018-12-11T18:06:45.653Z,99.90
2018-12-11T18:09:14.077Z,99.90
2018-12-11T18:11:42.780Z,99.90
2018-12-11T18:14:11.304Z,99.90
2018-12-11T18:16:39.756Z,99.90
2018-12-11T18:19:08.231Z,99.90
2018-12-11T18:21:36.696Z,99.90
2018-12-11T18:24:06.688Z,99.90
2018-12-11T18:26:35.135Z,99.90
2018-12-11T18:29:03.532Z,99.90
2018-12-11T18:31:32.056Z,99.90
2018-12-11T18:34:00.559Z,99.90
2018-12-11T18:36:29.037Z,99.90
2018-12-11T18:38:57.450Z,99.90
2018-12-11T18:41:25.830Z,99.90
2018-12-11T18:43:54.291Z,99.90
2018-12-11T18:46:22.850Z,99.90
2018-12-11T18:48:58.123Z,99.90
2018-12-11T18:51:28.440Z,99.90
2018-12-11T18:53:57.604Z,99.90
2018-12-11T18:56:26.059Z,99.90
2018-12-11T18:58:54.551Z,99.90
2018-12-11T19:01:23.113Z,99.90
2018-12-11T19:03:51.593Z,99.90
2018-12-11T19:06:22.343Z,99.90
2018-12-11T19:08:50.880Z,99.90
2018-12-11T19:11:19.926Z,99.90
2018-12-11T19:13:48.697Z,99.90
2018-12-11T19:16:17.206Z,99.90
2018-12-11T19:18:47.334Z,99.90
2018-12-11T19:21:16.851Z,99.90
2018-12-11T19:23:53.115Z,99.90
2018-12-11T19:26:21.781Z,99.90
2018-12-11T19:28:51.944Z,99.90
2018-12-11T19:31:20.356Z,99.90
2018-12-11T19:33:49.789Z,99.90
2018-12-11T19:36:18.539Z,99.90
2018-12-11T19:38:46.980Z,99.90
2018-12-11T19:41:18.291Z,99.90
2018-12-11T19:43:46.827Z,99.90
2018-12-11T19:46:15.301Z,99.90
2018-12-11T19:48:43.929Z,99.90
2018-12-11T19:51:12.467Z,99.90
2018-12-11T19:53:41.143Z,99.90
2018-12-11T19:56:09.860Z,99.90
2018-12-11T19:58:39.510Z,99.90
2018-12-11T20:01:08.132Z,99.90
2018-12-11T20:03:36.641Z,99.90
2018-12-11T20:06:05.273Z,99.90
2018-12-11T20:08:33.759Z,99.90
2018-12-11T20:11:02.228Z,99.90
2018-12-11T20:13:30.651Z,99.90
2018-12-11T20:15:59.121Z,99.90
2018-12-11T20:18:27.757Z,99.90
2018-12-11T20:20:56.331Z,99.90
2018-12-11T20:23:24.789Z,99.90
2018-12-11T20:25:53.320Z,99.90
2018-12-11T20:28:21.803Z,99.90
2018-12-11T20:30:50.296Z,99.90
2018-12-11T20:33:18.725Z,99.90
2018-12-11T20:35:47.154Z,99.90
2018-12-11T20:38:15.946Z,99.90
2018-12-11T20:40:44.363Z,99.90
2018-12-11T20:43:12.928Z,99.90
2018-12-11T20:45:41.366Z,99.90
2018-12-11T20:48:09.733Z,99.90
2018-12-11T20:50:38.183Z,99.90
2018-12-11T20:53:06.647Z,99.90
2018-12-11T20:55:35.065Z,99.90
2018-12-11T20:58:03.601Z,99.90
2018-12-11T21:00:34.436Z,99.90
2018-12-11T21:03:03.426Z,99.90
2018-12-11T21:05:31.852Z,99.90
2018-12-11T21:08:00.295Z,99.90
2018-12-11T21:10:28.758Z,99.90
2018-12-11T21:12:57.404Z,99.90
2018-12-11T21:15:25.798Z,99.90
2018-12-11T21:17:54.250Z,99.90
2018-12-11T21:20:22.684Z,99.90
2018-12-11T21:22:51.107Z,99.90
2018-12-11T21:25:19.582Z,99.90
2018-12-11T21:27:47.998Z,99.90
2018-12-11T21:30:16.567Z,99.90
2018-12-11T21:32:45.007Z,99.90
2018-12-11T21:35:13.480Z,99.90
2018-12-11T21:37:41.911Z,99.90
2018-12-11T21:40:10.523Z,99.90
2018-12-11T21:42:38.906Z,99.90
2018-12-11T21:45:07.434Z,99.90
2018-12-11T21:47:35.913Z,99.90
2018-12-11T21:50:05.968Z,99.90
2018-12-11T21:52:34.474Z,99.90
2018-12-11T21:55:04.452Z,99.90
2018-12-11T21:57:34.043Z,99.90
2018-12-11T22:00:02.616Z,99.90
2018-12-11T22:02:31.050Z,99.90
2018-12-11T22:04:59.553Z,99.90
2018-12-11T22:07:27.999Z,99.90
2018-12-11T22:09:56.457Z,99.90
2018-12-11T22:12:25.063Z,99.90
2018-12-11T22:14:53.564Z,99.90
2018-12-11T22:17:22.081Z,99.90
2018-12-11T22:19:50.527Z,99.90
2018-12-11T22:22:19.057Z,99.90
2018-12-11T22:24:47.430Z,99.90
2018-12-11T22:27:15.870Z,99.90
2018-12-11T22:29:44.322Z,99.90
2018-12-11T22:32:12.730Z,99.90
2018-12-11T22:34:41.171Z,99.90
2018-12-11T22:37:09.636Z,99.90
2018-12-11T22:39:38.074Z,99.90
2018-12-11T22:42:06.619Z,99.90
2018-12-11T22:45:16.576Z,99.90
2018-12-11T22:47:45.028Z,99.90
2018-12-11T22:50:13.504Z,99.90
2018-12-11T22:52:41.973Z,99.90
2018-12-11T22:55:10.994Z,99.90
2018-12-11T22:57:40.491Z,99.90
2018-12-11T23:00:11.161Z,99.90
2018-12-11T23:02:39.879Z,99.90
2018-12-11T23:05:08.297Z,99.90
2018-12-11T23:07:36.800Z,99.90
2018-12-11T23:10:05.840Z,99.90
2018-12-11T23:12:36.009Z,99.90
2018-12-11T23:15:05.796Z,99.90
2018-12-11T23:17:34.279Z,99.90
2018-12-11T23:20:02.708Z,99.90
2018-12-11T23:22:31.159Z,99.90
2018-12-11T23:24:59.940Z,99.90
2018-12-11T23:27:28.351Z,99.90
2018-12-11T23:29:56.862Z,99.90
2018-12-11T23:32:25.327Z,99.90
2018-12-11T23:34:54.623Z,99.90
2018-12-11T23:37:23.029Z,99.90
2018-12-11T23:39:51.450Z,99.90
2018-12-11T23:42:19.907Z,99.90
2018-12-11T23:44:48.355Z,99.90
2018-12-11T23:47:16.852Z,99.90
2018-12-11T23:49:45.247Z,99.90
2018-12-11T23:52:13.649Z,99.90
2018-12-11T23:54:42.101Z,99.90
2018-12-11T23:57:10.810Z,99.90
2018-12-11T23:59:39.286Z,99.90
